PWSweather.com
Personal Weather Stations
Station Observations
RIORANCHO
Corrales Heights, Rio Rancho, NM 87124

Corrales HeightsRio Rancho, NM 87124

Lat: 35.241928, Lon: -106.647095

Elevation: 5297

Station Type: Davis Vantage Pro 2 Plus

http://www.weatherriorancho.com

High Low Average
Temperature 51.7°F10.9°C 27.8°F-2.3°C 38.9°F3.8°C
Dew Point 36.4°F2.4°C 13.4°F-10.3°C 23.2°F-4.9°C
Winds 9.2 mph 14.8 kmh Calm Calm 3.0 mph SSW4.8 kmh SSW
Wind Gusts 17.3 mph27.8 kmh -- 5.0 mph8.0 kmh
Humidity 88% 35% 55%
Pressure 30.11 in1019.6 mb 29.96 in1014.6 mb -
Precipitation 0.14 in3.6 mm - -
Hour Temp Dew Point Humidity Winds Wind Gusts Pressure Precip Precip Rate Daily Precip Total
12:00 AM 29.2°F-1.6°C 13.7°F-10.2°C 52% Calm Calm 1.2 mph1.9 kmh 30.09 in1019.0 mb - 0.00 in0.0 mm 0.00 in0.0 mm
12:10 AM 29.2°F-1.6°C 13.7°F-10.2°C 52% Calm Calm -- 30.09 in1019.0 mb - 0.00 in0.0 mm 0.00 in0.0 mm
12:20 AM 29.0°F-1.7°C 13.9°F-10.1°C 53% Calm Calm -- 30.09 in1019.0 mb - 0.00 in0.0 mm 0.00 in0.0 mm
12:30 AM 28.5°F-1.9°C 13.9°F-10.1°C 54% 1.2 mph NNW1.9 kmh NNW 3.5 mph5.6 kmh 30.09 in1019.0 mb - 0.00 in0.0 mm 0.00 in0.0 mm
12:40 AM 28.2°F-2.1°C 13.6°F-10.2°C 54% Calm Calm 1.2 mph1.9 kmh 30.09 in1019.0 mb - 0.00 in0.0 mm 0.00 in0.0 mm
12:50 AM 28.0°F-2.2°C 13.4°F-10.3°C 54% Calm Calm -- 30.09 in1019.0 mb - 0.00 in0.0 mm 0.00 in0.0 mm
01:00 AM 27.8°F-2.3°C 13.7°F-10.2°C 55% 1.2 mph NNW1.9 kmh NNW 3.5 mph5.6 kmh 30.09 in1019.0 mb - 0.00 in0.0 mm 0.00 in0.0 mm
01:10 AM 27.8°F-2.3°C 13.7°F-10.2°C 55% Calm Calm -- 30.09 in1019.0 mb - 0.00 in0.0 mm 0.00 in0.0 mm
01:20 AM 27.9°F-2.3°C 13.8°F-10.1°C 55% Calm Calm 3.5 mph5.6 kmh 30.09 in1019.0 mb - 0.00 in0.0 mm 0.00 in0.0 mm
01:30 AM 28.1°F-2.2°C 14.0°F-10.0°C 55% Calm Calm 1.2 mph1.9 kmh 30.09 in1019.0 mb - 0.00 in0.0 mm 0.00 in0.0 mm
01:40 AM 28.6°F-1.9°C 14.0°F-10.0°C 54% Calm Calm -- 30.09 in1019.0 mb - 0.00 in0.0 mm 0.00 in0.0 mm
01:50 AM 29.4°F-1.4°C 14.3°F-9.8°C 53% Calm Calm 1.2 mph1.9 kmh 30.09 in1019.0 mb - 0.00 in0.0 mm 0.00 in0.0 mm
02:00 AM 30.0°F-1.1°C 14.0°F-10.0°C 51% 2.3 mph NNW3.7 kmh NNW 2.3 mph3.7 kmh 30.09 in1019.0 mb - 0.00 in0.0 mm 0.00 in0.0 mm
02:10 AM 30.4°F-0.9°C 13.5°F-10.3°C 49% 2.3 mph NNW3.7 kmh NNW 5.8 mph9.3 kmh 30.09 in1019.0 mb - 0.00 in0.0 mm 0.00 in0.0 mm
02:20 AM 30.7°F-0.7°C 13.8°F-10.1°C 49% 4.6 mph NNW7.4 kmh NNW 5.8 mph9.3 kmh 30.09 in1019.0 mb - 0.00 in0.0 mm 0.00 in0.0 mm
02:30 AM 31.0°F-0.6°C 14.1°F-9.9°C 49% 4.6 mph NNW7.4 kmh NNW 9.2 mph14.8 kmh 30.08 in1018.6 mb - 0.00 in0.0 mm 0.00 in0.0 mm
02:40 AM 31.3°F-0.4°C 14.3°F-9.8°C 49% 4.6 mph NNW7.4 kmh NNW 8.1 mph13.0 kmh 30.08 in1018.6 mb - 0.00 in0.0 mm 0.00 in0.0 mm
02:50 AM 31.4°F-0.3°C 14.4°F-9.8°C 49% Calm Calm 2.3 mph3.7 kmh 30.08 in1018.6 mb - 0.00 in0.0 mm 0.00 in0.0 mm
03:00 AM 31.5°F-0.3°C 14.5°F-9.7°C 49% Calm Calm -- 30.08 in1018.6 mb - 0.00 in0.0 mm 0.00 in0.0 mm
03:10 AM 31.7°F-0.2°C 15.1°F-9.4°C 50% Calm Calm 3.5 mph5.6 kmh 30.08 in1018.6 mb - 0.00 in0.0 mm 0.00 in0.0 mm
03:20 AM 31.8°F-0.1°C 15.3°F-9.3°C 50% Calm Calm -- 30.08 in1018.6 mb - 0.00 in0.0 mm 0.00 in0.0 mm
03:30 AM 32.0°F0.0°C 15.4°F-9.2°C 50% Calm Calm -- 30.08 in1018.6 mb - 0.00 in0.0 mm 0.00 in0.0 mm
03:40 AM 32.1°F0.1°C 15.6°F-9.1°C 50% 2.3 mph NNW3.7 kmh NNW 3.5 mph5.6 kmh 30.08 in1018.6 mb - 0.00 in0.0 mm 0.00 in0.0 mm
03:50 AM 32.2°F0.1°C 16.1°F-8.8°C 51% Calm Calm 2.3 mph3.7 kmh 30.08 in1018.6 mb - 0.00 in0.0 mm 0.00 in0.0 mm
04:00 AM 32.3°F0.2°C 15.7°F-9.1°C 50% 3.5 mph NNW5.6 kmh NNW 3.5 mph5.6 kmh 30.08 in1018.6 mb - 0.00 in0.0 mm 0.00 in0.0 mm
04:10 AM 32.4°F0.2°C 16.3°F-8.7°C 51% 4.6 mph NNW7.4 kmh NNW 10.4 mph16.7 kmh 30.08 in1018.6 mb - 0.00 in0.0 mm 0.00 in0.0 mm
04:20 AM 32.5°F0.3°C 16.4°F-8.7°C 51% 3.5 mph NNW5.6 kmh NNW 6.9 mph11.1 kmh 30.08 in1018.6 mb - 0.00 in0.0 mm 0.00 in0.0 mm
04:30 AM 32.5°F0.3°C 16.4°F-8.7°C 51% 4.6 mph NNW7.4 kmh NNW 6.9 mph11.1 kmh 30.08 in1018.6 mb - 0.00 in0.0 mm 0.00 in0.0 mm
04:40 AM 32.4°F0.2°C 16.3°F-8.7°C 51% 4.6 mph NNW7.4 kmh NNW 6.9 mph11.1 kmh 30.07 in1018.3 mb - 0.00 in0.0 mm 0.00 in0.0 mm
04:50 AM 32.5°F0.3°C 16.4°F-8.7°C 51% 5.8 mph NNW9.3 kmh NNW 8.1 mph13.0 kmh 30.07 in1018.3 mb - 0.00 in0.0 mm 0.00 in0.0 mm
05:00 AM 32.5°F0.3°C 16.4°F-8.7°C 51% 3.5 mph NNW5.6 kmh NNW 4.6 mph7.4 kmh 30.08 in1018.6 mb - 0.00 in0.0 mm 0.00 in0.0 mm
05:10 AM 32.6°F0.3°C 16.4°F-8.7°C 51% 2.3 mph NNW3.7 kmh NNW 6.9 mph11.1 kmh 30.08 in1018.6 mb - 0.00 in0.0 mm 0.00 in0.0 mm
05:20 AM 32.6°F0.3°C 16.9°F-8.4°C 52% 4.6 mph NNW7.4 kmh NNW 8.1 mph13.0 kmh 30.08 in1018.6 mb - 0.00 in0.0 mm 0.00 in0.0 mm
05:30 AM 32.6°F0.3°C 17.3°F-8.2°C 53% 5.8 mph NNW9.3 kmh NNW 10.4 mph16.7 kmh 30.08 in1018.6 mb - 0.00 in0.0 mm 0.00 in0.0 mm
05:40 AM 32.6°F0.3°C 17.8°F-7.9°C 54% 2.3 mph NNW3.7 kmh NNW 5.8 mph9.3 kmh 30.08 in1018.6 mb - 0.00 in0.0 mm 0.00 in0.0 mm
05:50 AM 32.4°F0.2°C 18.4°F-7.6°C 56% 2.3 mph NNW3.7 kmh NNW 6.9 mph11.1 kmh 30.08 in1018.6 mb - 0.00 in0.0 mm 0.00 in0.0 mm
06:00 AM 32.3°F0.2°C 18.3°F-7.6°C 56% 4.6 mph NNW7.4 kmh NNW 5.8 mph9.3 kmh 30.08 in1018.6 mb - 0.00 in0.0 mm 0.00 in0.0 mm
06:10 AM 32.1°F0.1°C 18.9°F-7.3°C 58% 5.8 mph NNW9.3 kmh NNW 8.1 mph13.0 kmh 30.08 in1018.6 mb - 0.00 in0.0 mm 0.00 in0.0 mm
06:20 AM 32.0°F0.0°C 19.3°F-7.1°C 59% 2.3 mph NNW3.7 kmh NNW 5.8 mph9.3 kmh 30.09 in1019.0 mb - 0.00 in0.0 mm 0.00 in0.0 mm
06:30 AM 32.0°F0.0°C 19.7°F-6.8°C 60% 4.6 mph N7.4 kmh N 8.1 mph13.0 kmh 30.09 in1019.0 mb - 0.00 in0.0 mm 0.00 in0.0 mm
06:40 AM 32.0°F0.0°C 20.1°F-6.6°C 61% 4.6 mph NNW7.4 kmh NNW 6.9 mph11.1 kmh 30.09 in1019.0 mb - 0.00 in0.0 mm 0.00 in0.0 mm
06:50 AM 32.0°F0.0°C 20.1°F-6.6°C 61% 4.6 mph N7.4 kmh N 9.2 mph14.8 kmh 30.09 in1019.0 mb - 0.00 in0.0 mm 0.00 in0.0 mm
07:00 AM 32.0°F0.0°C 20.4°F-6.4°C 62% 3.5 mph N5.6 kmh N 8.1 mph13.0 kmh 30.09 in1019.0 mb - 0.00 in0.0 mm 0.00 in0.0 mm
07:10 AM 32.1°F0.1°C 20.5°F-6.4°C 62% 3.5 mph N5.6 kmh N 3.5 mph5.6 kmh 30.09 in1019.0 mb - 0.00 in0.0 mm 0.00 in0.0 mm
07:20 AM 32.1°F0.1°C 20.2°F-6.6°C 61% 3.5 mph N5.6 kmh N 10.4 mph16.7 kmh 30.10 in1019.3 mb - 0.00 in0.0 mm 0.00 in0.0 mm
07:30 AM 32.1°F0.1°C 20.2°F-6.6°C 61% 6.9 mph N11.1 kmh N 11.5 mph18.5 kmh 30.10 in1019.3 mb - 0.00 in0.0 mm 0.00 in0.0 mm
07:40 AM 32.1°F0.1°C 19.8°F-6.8°C 60% 6.9 mph N11.1 kmh N 9.2 mph14.8 kmh 30.10 in1019.3 mb - 0.00 in0.0 mm 0.00 in0.0 mm
07:50 AM 32.2°F0.1°C 19.4°F-7.0°C 59% 9.2 mph N14.8 kmh N 17.3 mph27.8 kmh 30.11 in1019.6 mb - 0.00 in0.0 mm 0.00 in0.0 mm
08:00 AM 32.2°F0.1°C 19.5°F-6.9°C 59% 4.6 mph N7.4 kmh N 9.2 mph14.8 kmh 30.11 in1019.6 mb - 0.00 in0.0 mm 0.00 in0.0 mm
08:10 AM 32.4°F0.2°C 18.8°F-7.3°C 57% 6.9 mph N11.1 kmh N 11.5 mph18.5 kmh 30.11 in1019.6 mb - 0.00 in0.0 mm 0.00 in0.0 mm
08:20 AM 32.5°F0.3°C 18.5°F-7.5°C 56% 3.5 mph N5.6 kmh N 5.8 mph9.3 kmh 30.11 in1019.6 mb - 0.00 in0.0 mm 0.00 in0.0 mm
08:30 AM 33.0°F0.6°C 18.5°F-7.5°C 55% 6.9 mph N11.1 kmh N 11.5 mph18.5 kmh 30.11 in1019.6 mb - 0.00 in0.0 mm 0.00 in0.0 mm
08:40 AM 33.1°F0.6°C 19.1°F-7.2°C 56% 3.5 mph N5.6 kmh N 6.9 mph11.1 kmh 30.11 in1019.6 mb - 0.00 in0.0 mm 0.00 in0.0 mm
08:50 AM 33.8°F1.0°C 19.3°F-7.1°C 55% 6.9 mph N11.1 kmh N 11.5 mph18.5 kmh 30.11 in1019.6 mb - 0.00 in0.0 mm 0.00 in0.0 mm
09:00 AM 34.3°F1.3°C 18.9°F-7.3°C 53% 8.1 mph N13.0 kmh N 12.7 mph20.4 kmh 30.11 in1019.6 mb - 0.00 in0.0 mm 0.00 in0.0 mm
09:10 AM 34.6°F1.4°C 18.8°F-7.3°C 52% 8.1 mph N13.0 kmh N 11.5 mph18.5 kmh 30.11 in1019.6 mb - 0.00 in0.0 mm 0.00 in0.0 mm
09:20 AM 35.3°F1.8°C 18.9°F-7.3°C 51% 6.9 mph N11.1 kmh N 11.5 mph18.5 kmh 30.11 in1019.6 mb - 0.00 in0.0 mm 0.00 in0.0 mm
09:30 AM 35.9°F2.2°C 19.5°F-6.9°C 51% 6.9 mph NE11.1 kmh NE 10.4 mph16.7 kmh 30.10 in1019.3 mb - 0.00 in0.0 mm 0.00 in0.0 mm
09:40 AM 36.4°F2.4°C 19.5°F-6.9°C 50% 8.1 mph N13.0 kmh N 15.0 mph24.1 kmh 30.10 in1019.3 mb - 0.00 in0.0 mm 0.00 in0.0 mm
09:50 AM 36.6°F2.6°C 19.7°F-6.8°C 50% 6.9 mph N11.1 kmh N 11.5 mph18.5 kmh 30.10 in1019.3 mb - 0.00 in0.0 mm 0.00 in0.0 mm
10:00 AM 37.9°F3.3°C 19.9°F-6.7°C 48% 6.9 mph 11.1 kmh 13.8 mph22.2 kmh 30.10 in1019.3 mb - 0.00 in0.0 mm 0.00 in0.0 mm
10:10 AM 37.5°F3.1°C 19.6°F-6.9°C 48% 8.1 mph N13.0 kmh N 11.5 mph18.5 kmh 30.10 in1019.3 mb - 0.00 in0.0 mm 0.00 in0.0 mm
10:20 AM 38.2°F3.4°C 19.2°F-7.1°C 46% 5.8 mph N9.3 kmh N 13.8 mph22.2 kmh 30.10 in1019.3 mb - 0.00 in0.0 mm 0.00 in0.0 mm
10:30 AM 39.2°F4.0°C 19.6°F-6.9°C 45% 6.9 mph N11.1 kmh N 10.4 mph16.7 kmh 30.09 in1019.0 mb - 0.00 in0.0 mm 0.00 in0.0 mm
10:40 AM 40.0°F4.4°C 19.8°F-6.8°C 44% 5.8 mph NNE9.3 kmh NNE 6.9 mph11.1 kmh 30.09 in1019.0 mb - 0.00 in0.0 mm 0.00 in0.0 mm
10:50 AM 40.2°F4.6°C 20.0°F-6.7°C 44% 6.9 mph N11.1 kmh N 8.1 mph13.0 kmh 30.09 in1019.0 mb - 0.00 in0.0 mm 0.00 in0.0 mm
11:00 AM 41.4°F5.2°C 21.1°F-6.1°C 44% 4.6 mph NE7.4 kmh NE 6.9 mph11.1 kmh 30.09 in1019.0 mb - 0.00 in0.0 mm 0.00 in0.0 mm
11:10 AM 42.4°F5.8°C 20.9°F-6.2°C 42% 1.2 mph N1.9 kmh N 6.9 mph11.1 kmh 30.09 in1019.0 mb - 0.00 in0.0 mm 0.00 in0.0 mm
11:20 AM 43.0°F6.1°C 21.4°F-5.9°C 42% 2.3 mph NNE3.7 kmh NNE 6.9 mph11.1 kmh 30.09 in1019.0 mb - 0.00 in0.0 mm 0.00 in0.0 mm
11:30 AM 44.0°F6.7°C 21.2°F-6.0°C 40% 4.6 mph 7.4 kmh 5.8 mph9.3 kmh 30.08 in1018.6 mb - 0.00 in0.0 mm 0.00 in0.0 mm
11:40 AM 44.9°F7.2°C 22.1°F-5.5°C 40% Calm Calm 1.2 mph1.9 kmh 30.08 in1018.6 mb - 0.00 in0.0 mm 0.00 in0.0 mm
11:50 AM 45.2°F7.3°C 22.3°F-5.4°C 40% 1.2 mph N1.9 kmh N 3.5 mph5.6 kmh 30.07 in1018.3 mb - 0.00 in0.0 mm 0.00 in0.0 mm
12:00 PM 45.9°F7.7°C 22.9°F-5.1°C 40% Calm Calm -- 30.07 in1018.3 mb - 0.00 in0.0 mm 0.00 in0.0 mm
12:10 PM 47.5°F8.6°C 22.5°F-5.3°C 37% Calm Calm 1.2 mph1.9 kmh 30.07 in1018.3 mb - 0.00 in0.0 mm 0.00 in0.0 mm
12:20 PM 47.6°F8.7°C 23.2°F-4.9°C 38% Calm Calm -- 30.06 in1017.9 mb - 0.00 in0.0 mm 0.00 in0.0 mm
12:30 PM 48.1°F8.9°C 23.0°F-5.0°C 37% Calm Calm -- 30.06 in1017.9 mb - 0.00 in0.0 mm 0.00 in0.0 mm
12:40 PM 49.8°F9.9°C 23.9°F-4.5°C 36% Calm Calm -- 30.05 in1017.6 mb - 0.00 in0.0 mm 0.00 in0.0 mm
12:50 PM 49.9°F9.9°C 23.3°F-4.8°C 35% Calm Calm 2.3 mph3.7 kmh 30.05 in1017.6 mb - 0.00 in0.0 mm 0.00 in0.0 mm
01:00 PM 49.5°F9.7°C 24.3°F-4.3°C 37% 1.2 mph E1.9 kmh E 8.1 mph13.0 kmh 30.04 in1017.3 mb - 0.00 in0.0 mm 0.00 in0.0 mm
01:10 PM 49.5°F9.7°C 24.3°F-4.3°C 37% Calm Calm -- 30.04 in1017.3 mb - 0.00 in0.0 mm 0.00 in0.0 mm
01:20 PM 49.0°F9.4°C 24.5°F-4.2°C 38% Calm Calm -- 30.03 in1016.9 mb - 0.00 in0.0 mm 0.00 in0.0 mm
01:30 PM 50.6°F10.3°C 25.2°F-3.8°C 37% Calm Calm -- 30.03 in1016.9 mb - 0.00 in0.0 mm 0.00 in0.0 mm
01:40 PM 51.2°F10.7°C 25.2°F-3.8°C 36% 1.2 mph SE1.9 kmh SE 5.8 mph9.3 kmh 30.02 in1016.6 mb - 0.00 in0.0 mm 0.00 in0.0 mm
01:50 PM 50.6°F10.3°C 25.9°F-3.4°C 38% 2.3 mph SSE3.7 kmh SSE 5.8 mph9.3 kmh 30.01 in1016.3 mb - 0.00 in0.0 mm 0.00 in0.0 mm
02:00 PM 50.3°F10.2°C 26.3°F-3.2°C 39% 2.3 mph SSE3.7 kmh SSE 6.9 mph11.1 kmh 30.01 in1016.3 mb - 0.00 in0.0 mm 0.00 in0.0 mm
02:10 PM 50.6°F10.3°C 25.9°F-3.4°C 38% Calm Calm 1.2 mph1.9 kmh 30.00 in1015.9 mb - 0.00 in0.0 mm 0.00 in0.0 mm
02:20 PM 49.9°F9.9°C 25.9°F-3.4°C 39% 1.2 mph SSE1.9 kmh SSE 3.5 mph5.6 kmh 30.00 in1015.9 mb - 0.00 in0.0 mm 0.00 in0.0 mm
02:30 PM 50.1°F10.1°C 26.1°F-3.3°C 39% Calm Calm -- 30.00 in1015.9 mb - 0.00 in0.0 mm 0.00 in0.0 mm
02:40 PM 50.1°F10.1°C 25.4°F-3.7°C 38% 1.2 mph SSE1.9 kmh SSE 4.6 mph7.4 kmh 30.00 in1015.9 mb - 0.00 in0.0 mm 0.00 in0.0 mm
02:50 PM 50.1°F10.1°C 25.5°F-3.6°C 38% 2.3 mph S3.7 kmh S 3.5 mph5.6 kmh 29.99 in1015.6 mb - 0.00 in0.0 mm 0.00 in0.0 mm
03:00 PM 51.7°F10.9°C 25.5°F-3.6°C 36% 2.3 mph SE3.7 kmh SE 3.5 mph5.6 kmh 29.98 in1015.2 mb - 0.00 in0.0 mm 0.00 in0.0 mm
03:10 PM 51.7°F10.9°C 25.5°F-3.6°C 36% 1.2 mph S1.9 kmh S 5.8 mph9.3 kmh 29.98 in1015.2 mb - 0.00 in0.0 mm 0.00 in0.0 mm
03:20 PM 51.0°F10.6°C 25.6°F-3.6°C 37% 1.2 mph SE1.9 kmh SE 3.5 mph5.6 kmh 29.98 in1015.2 mb - 0.00 in0.0 mm 0.00 in0.0 mm
03:30 PM 51.1°F10.6°C 25.7°F-3.5°C 37% 2.3 mph SSE3.7 kmh SSE 5.8 mph9.3 kmh 29.98 in1015.2 mb - 0.00 in0.0 mm 0.00 in0.0 mm
03:40 PM 51.2°F10.7°C 25.8°F-3.4°C 37% Calm Calm 1.2 mph1.9 kmh 29.98 in1015.2 mb - 0.00 in0.0 mm 0.00 in0.0 mm
03:50 PM 51.4°F10.8°C 25.3°F-3.7°C 36% Calm Calm -- 29.98 in1015.2 mb - 0.00 in0.0 mm 0.00 in0.0 mm
04:00 PM 51.2°F10.7°C 25.1°F-3.8°C 36% Calm Calm -- 29.98 in1015.2 mb - 0.00 in0.0 mm 0.00 in0.0 mm
04:10 PM 51.2°F10.7°C 25.1°F-3.8°C 36% Calm Calm -- 29.98 in1015.2 mb - 0.00 in0.0 mm 0.00 in0.0 mm
04:20 PM 51.4°F10.8°C 26.0°F-3.3°C 37% Calm Calm -- 29.98 in1015.2 mb - 0.00 in0.0 mm 0.00 in0.0 mm
04:30 PM 50.6°F10.3°C 23.9°F-4.5°C 35% 1.2 mph ESE1.9 kmh ESE 6.9 mph11.1 kmh 29.98 in1015.2 mb - 0.00 in0.0 mm 0.00 in0.0 mm
04:40 PM 49.2°F9.6°C 23.4°F-4.8°C 36% 1.2 mph ESE1.9 kmh ESE 1.2 mph1.9 kmh 29.97 in1014.9 mb - 0.00 in0.0 mm 0.00 in0.0 mm
04:50 PM 48.5°F9.2°C 23.4°F-4.8°C 37% Calm Calm 1.2 mph1.9 kmh 29.97 in1014.9 mb - 0.00 in0.0 mm 0.00 in0.0 mm
05:00 PM 48.4°F9.1°C 23.3°F-4.8°C 37% Calm Calm 1.2 mph1.9 kmh 29.96 in1014.6 mb - 0.00 in0.0 mm 0.00 in0.0 mm
05:10 PM 48.1°F8.9°C 23.7°F-4.6°C 38% Calm Calm -- 29.98 in1015.2 mb - 0.00 in0.0 mm 0.00 in0.0 mm
05:20 PM 47.8°F8.8°C 24.1°F-4.4°C 39% 1.2 mph ENE1.9 kmh ENE 4.6 mph7.4 kmh 29.99 in1015.6 mb - 0.00 in0.0 mm 0.00 in0.0 mm
05:30 PM 47.4°F8.6°C 24.3°F-4.3°C 40% Calm Calm -- 29.98 in1015.2 mb - 0.00 in0.0 mm 0.00 in0.0 mm
05:40 PM 47.1°F8.4°C 24.6°F-4.1°C 41% Calm Calm 1.2 mph1.9 kmh 29.98 in1015.2 mb - 0.00 in0.0 mm 0.00 in0.0 mm
05:50 PM 46.8°F8.2°C 31.9°F-0.1°C 56% 2.3 mph SW3.7 kmh SW 4.6 mph7.4 kmh 29.99 in1015.6 mb - 0.00 in0.0 mm 0.00 in0.0 mm
06:00 PM 45.3°F7.4°C 34.2°F1.2°C 65% Calm Calm -- 29.99 in1015.6 mb - 0.00 in0.0 mm 0.00 in0.0 mm
06:10 PM 45.2°F7.3°C 35.9°F2.2°C 70% Calm Calm 1.2 mph1.9 kmh 29.99 in1015.6 mb - 0.00 in0.0 mm 0.00 in0.0 mm
06:20 PM 44.5°F6.9°C 35.0°F1.7°C 69% 1.2 mph SE1.9 kmh SE 2.3 mph3.7 kmh 30.00 in1015.9 mb - 0.01 in0.3 mm 0.01 in0.3 mm
06:30 PM 43.6°F6.4°C 34.8°F1.6°C 71% 1.2 mph SE1.9 kmh SE 2.3 mph3.7 kmh 30.00 in1015.9 mb - 0.01 in0.3 mm 0.02 in0.5 mm
06:40 PM 43.1°F6.2°C 35.0°F1.7°C 73% 5.8 mph W9.3 kmh W 9.2 mph14.8 kmh 30.00 in1015.9 mb - 0.02 in0.5 mm 0.04 in1.0 mm
06:50 PM 42.2°F5.7°C 35.5°F1.9°C 77% 1.2 mph W1.9 kmh W 2.3 mph3.7 kmh 29.99 in1015.6 mb - 0.01 in0.3 mm 0.05 in1.3 mm
07:00 PM 42.2°F5.7°C 36.1°F2.3°C 79% Calm Calm 1.2 mph1.9 kmh 30.00 in1015.9 mb - 0.00 in0.0 mm 0.05 in1.3 mm
07:10 PM 41.1°F5.1°C 34.4°F1.3°C 77% Calm Calm -- 30.00 in1015.9 mb - 0.04 in1.0 mm 0.09 in2.3 mm
07:20 PM 40.8°F4.9°C 35.1°F1.7°C 80% Calm Calm 1.2 mph1.9 kmh 30.00 in1015.9 mb - 0.01 in0.3 mm 0.09 in2.3 mm
07:30 PM 41.0°F5.0°C 35.6°F2.0°C 81% 3.5 mph E5.6 kmh E 3.5 mph5.6 kmh 30.00 in1015.9 mb - 0.01 in0.3 mm 0.10 in2.5 mm
07:40 PM 40.1°F4.5°C 35.4°F1.9°C 83% 1.2 mph E1.9 kmh E 2.3 mph3.7 kmh 30.01 in1016.3 mb - 0.01 in0.3 mm 0.11 in2.8 mm
07:50 PM 39.9°F4.4°C 35.8°F2.1°C 85% Calm Calm 1.2 mph1.9 kmh 30.01 in1016.3 mb - 0.00 in0.0 mm 0.11 in2.8 mm
08:00 PM 40.0°F4.4°C 36.2°F2.3°C 86% 1.2 mph E1.9 kmh E 5.8 mph9.3 kmh 30.00 in1015.9 mb - 0.00 in0.0 mm 0.11 in2.8 mm
08:10 PM 39.6°F4.2°C 35.8°F2.1°C 86% Calm Calm 3.5 mph5.6 kmh 30.00 in1015.9 mb - 0.00 in0.0 mm 0.11 in2.8 mm
08:20 PM 39.4°F4.1°C 36.1°F2.3°C 88% 4.6 mph E7.4 kmh E 11.5 mph18.5 kmh 30.01 in1016.3 mb - 0.00 in0.0 mm 0.11 in2.8 mm
08:30 PM 40.0°F4.4°C 36.4°F2.4°C 87% Calm Calm 1.2 mph1.9 kmh 30.00 in1015.9 mb - 0.00 in0.0 mm 0.11 in2.8 mm
08:40 PM 40.1°F4.5°C 36.2°F2.3°C 86% Calm Calm -- 30.02 in1016.6 mb - 0.00 in0.0 mm 0.11 in2.8 mm
08:50 PM 40.1°F4.5°C 36.3°F2.4°C 86% 1.2 mph ESE1.9 kmh ESE 6.9 mph11.1 kmh 30.01 in1016.3 mb - 0.01 in0.3 mm 0.12 in3.0 mm
09:00 PM 40.9°F4.9°C 36.1°F2.3°C 83% Calm Calm 2.3 mph3.7 kmh 30.01 in1016.3 mb - 0.01 in0.3 mm 0.13 in3.3 mm
09:10 PM 41.1°F5.1°C 35.7°F2.1°C 81% 3.5 mph SE5.6 kmh SE 8.1 mph13.0 kmh 30.01 in1016.3 mb - 0.01 in0.3 mm 0.14 in3.6 mm
09:20 PM 41.7°F5.4°C 36.0°F2.2°C 80% 1.2 mph SE1.9 kmh SE 2.3 mph3.7 kmh 30.02 in1016.6 mb - 0.00 in0.0 mm 0.14 in3.6 mm
09:30 PM 40.9°F4.9°C 36.4°F2.4°C 84% Calm Calm -- 30.02 in1016.6 mb - 0.00 in0.0 mm 0.14 in3.6 mm
09:40 PM 39.6°F4.2°C 35.5°F1.9°C 85% 4.6 mph NW7.4 kmh NW 9.2 mph14.8 kmh 30.02 in1016.6 mb - 0.00 in0.0 mm 0.14 in3.6 mm
09:50 PM 38.4°F3.6°C 34.2°F1.2°C 85% 4.6 mph NW7.4 kmh NW 6.9 mph11.1 kmh 30.01 in1016.3 mb - 0.00 in0.0 mm 0.14 in3.6 mm
10:00 PM 37.2°F2.9°C 33.4°F0.8°C 86% 4.6 mph NNW7.4 kmh NNW 9.2 mph14.8 kmh 30.02 in1016.6 mb - 0.00 in0.0 mm 0.14 in3.6 mm
10:10 PM 36.0°F2.2°C 32.2°F0.1°C 86% 4.6 mph NW7.4 kmh NW 10.4 mph16.7 kmh 30.02 in1016.6 mb - 0.00 in0.0 mm 0.14 in3.6 mm
10:20 PM 34.9°F1.6°C 30.9°F-0.6°C 85% 8.1 mph NW13.0 kmh NW 13.8 mph22.2 kmh 30.02 in1016.6 mb - 0.00 in0.0 mm 0.14 in3.6 mm
10:30 PM 34.1°F1.2°C 30.4°F-0.9°C 86% 8.1 mph N13.0 kmh N 11.5 mph18.5 kmh 30.02 in1016.6 mb - 0.00 in0.0 mm 0.14 in3.6 mm
10:40 PM 33.5°F0.8°C 29.8°F-1.2°C 86% 6.9 mph NW11.1 kmh NW 10.4 mph16.7 kmh 30.02 in1016.6 mb - 0.00 in0.0 mm 0.14 in3.6 mm
10:50 PM 33.2°F0.7°C 29.5°F-1.4°C 86% 8.1 mph NNW13.0 kmh NNW 13.8 mph22.2 kmh 30.02 in1016.6 mb - 0.00 in0.0 mm 0.14 in3.6 mm
11:00 PM 33.0°F0.6°C 28.7°F-1.8°C 84% 8.1 mph NNW13.0 kmh NNW 15.0 mph24.1 kmh 30.02 in1016.6 mb - 0.00 in0.0 mm 0.14 in3.6 mm
11:10 PM 33.0°F0.6°C 27.1°F-2.7°C 79% 9.2 mph N14.8 kmh N 15.0 mph24.1 kmh 30.02 in1016.6 mb - 0.00 in0.0 mm 0.14 in3.6 mm
11:20 PM 33.2°F0.7°C 26.1°F-3.3°C 75% 6.9 mph NNW11.1 kmh NNW 12.7 mph20.4 kmh 30.02 in1016.6 mb - 0.00 in0.0 mm 0.14 in3.6 mm